| time (UTC) | temp C | wind direction | speed KPH | gust KPH | rain 1hr cm | rain 24hr cm | rain mn cm | humidity % | barometer mb |
| 20260509034537 | 10 | 5 | 3.2 | 14.5 | 0.00 | 0.00 | 0.00 | 79 | 1017.0 |
| 20260509033023 | 10 | 16 | 9.7 | 12.9 | 0.00 | 0.00 | 0.00 | 80 | 1016.7 |
| 20260509031516 | 10 | 312 | 4.8 | 19.3 | 0.00 | 0.00 | 0.00 | 79 | 1016.7 |
| 20260509030047 | 10 | 342 | 12.9 | 19.3 | 0.00 | 0.00 | 0.00 | 78 | 1016.7 |
| 20260509024522 | 10 | 360 | 9.7 | 16.1 | 0.00 | 0.00 | 0.00 | 79 | 1016.9 |
| 20260509023014 | 10 | 329 | 4.8 | 11.3 | 0.00 | 0.00 | 0.00 | 79 | 1017.1 |
| 20260509021536 | 10 | 346 | 3.2 | 8.0 | 0.00 | 0.00 | 0.00 | 79 | 1017.1 |
| 20260509020018 | 11 | 360 | 6.4 | 17.7 | 0.00 | 0.00 | 0.00 | 77 | 1017.0 |
| 20260509014515 | 11 | 15 | 4.8 | 14.5 | 0.00 | 0.00 | 0.00 | 76 | 1017.1 |
| 20260509013028 | 11 | 13 | 8.0 | 12.9 | 0.00 | 0.00 | 0.00 | 76 | 1017.0 |
| 20260509011522 | 11 | 294 | 4.8 | 9.7 | 0.00 | 0.00 | 0.00 | 77 | 1017.1 |
| 20260509010013 | 11 | 355 | 12.9 | 16.1 | 0.00 | 0.00 | 0.00 | 77 | 1016.9 |
| 20260509004539 | 11 | 327 | 1.6 | 8.0 | 0.00 | 0.00 | 0.00 | 77 | 1016.9 |
| 20260509003021 | 11 | 21 | 6.4 | 17.7 | 0.00 | 0.00 | 0.00 | 75 | 1016.8 |
| 20260509001515 | 11 | 14 | 14.5 | 20.9 | 0.00 | 0.00 | 0.00 | 75 | 1016.9 |
| 20260509000027 | 11 | 16 | 6.4 | 14.5 | 0.00 | 0.00 | 0.00 | 75 | 1016.9 |
| 20260508234525 | 11 | 355 | 4.8 | 12.9 | 0.00 | 0.00 | 0.00 | 76 | 1017.0 |
| 20260508233017 | 11 | 355 | 3.2 | 6.4 | 0.00 | 0.00 | 0.00 | 77 | 1016.9 |
| 20260508231530 | 11 | 336 | 0.0 | 3.2 | 0.00 | 0.00 | 0.00 | 77 | 1016.9 |
| 20260508230024 | 11 | 13 | 1.6 | 8.0 | 0.00 | 0.00 | 0.00 | 76 | 1016.9 |
| 20260508224517 | 11 | 355 | 9.7 | 12.9 | 0.00 | 0.00 | 0.00 | 75 | 1017.0 |
| 20260508223042 | 11 | 32 | 3.2 | 8.0 | 0.00 | 0.00 | 0.00 | 74 | 1017.0 |
| 20260508221523 | 11 | 350 | 6.4 | 12.9 | 0.00 | 0.00 | 0.00 | 76 | 1017.0 |
| 20260508220020 | 11 | 15 | 1.6 | 8.0 | 0.00 | 0.00 | 0.00 | 76 | 1017.0 |
| 20260508214513 | 12 | 10 | 0.0 | 0.0 | 0.00 | 0.00 | 0.00 | 77 | 1016.9 |
| 20260508213026 | 12 | 9 | 0.0 | 6.4 | 0.00 | 0.00 | 0.00 | 74 | 1016.8 |
| 20260508211520 | 12 | 12 | 0.0 | 4.8 | 0.00 | 0.00 | 0.00 | 76 | 1016.9 |
| 20260508210031 | 12 | 12 | 0.0 | 4.8 | 0.00 | 0.00 | 0.00 | 77 | 1016.8 |
| 20260508204528 | 12 | 49 | 0.0 | 9.7 | 0.00 | 0.00 | 0.00 | 77 | 1016.7 |
| 20260508203026 | 12 | 355 | 1.6 | 8.0 | 0.00 | 0.00 | 0.00 | 78 | 1016.7 |
| 20260508201520 | 12 | 17 | 0.0 | 1.6 | 0.00 | 0.00 | 0.00 | 77 | 1016.8 |
| 20260508200032 | 12 | 17 | 0.0 | 1.6 | 0.00 | 0.00 | 0.00 | 76 | 1016.6 |
| 20260508194525 | 12 | 17 | 1.6 | 4.8 | 0.00 | 0.00 | 0.00 | 77 | 1016.4 |
| 20260508193020 | 12 | 17 | 0.0 | 6.4 | 0.00 | 0.00 | 0.00 | 77 | 1016.2 |
| 20260508191538 | 13 | 355 | 1.6 | 8.0 | 0.00 | 0.00 | 0.00 | 76 | 1015.9 |
| 20260508190027 | 13 | 360 | 4.8 | 8.0 | 0.00 | 0.00 | 0.00 | 76 | 1015.7 |
| 20260508184523 | 13 | 360 | 4.8 | 6.4 | 0.00 | 0.00 | 0.00 | 76 | 1015.5 |
| 20260508183032 | 13 | 355 | 0.0 | 3.2 | 0.00 | 0.00 | 0.00 | 75 | 1015.3 |
| 20260508181519 | 14 | 360 | 0.0 | 6.4 | 0.00 | 0.00 | 0.00 | 72 | 1015.2 |
| 20260508180036 | 15 | 262 | 0.0 | 1.6 | 0.00 | 0.00 | 0.00 | 74 | 1015.1 |
| 20260508174526 | 15 | 360 | 0.0 | 0.0 | 0.00 | 0.00 | 0.00 | 74 | 1015.1 |
| 20260508173021 | 15 | 263 | 0.0 | 1.6 | 0.00 | 0.00 | 0.00 | 72 | 1015.0 |
| 20260508171533 | 16 | 262 | 0.0 | 1.6 | 0.00 | 0.00 | 0.00 | 69 | 1015.0 |
| 20260508170026 | 16 | 262 | 0.0 | 0.0 | 0.00 | 0.00 | 0.00 | 69 | 1015.0 |
| 20260508164519 | 16 | 263 | 0.0 | 1.6 | 0.00 | 0.00 | 0.00 | 68 | 1014.9 |
| 20260508163036 | 16 | 264 | 0.0 | 0.0 | 0.00 | 0.00 | 0.00 | 67 | 1014.9 |
| 20260508161524 | 16 | 254 | 0.0 | 4.8 | 0.00 | 0.00 | 0.00 | 67 | 1014.8 |
| 20260508160021 | 16 | 326 | 0.0 | 9.7 | 0.00 | 0.00 | 0.00 | 65 | 1014.9 |
| 20260508154528 | 16 | 360 | 3.2 | 9.7 | 0.00 | 0.00 | 0.00 | 62 | 1014.9 |
| 20260508153023 | 16 | 279 | 6.4 | 12.9 | 0.00 | 0.00 | 0.00 | 63 | 1014.9 |
| 20260508151515 | 16 | 206 | 1.6 | 6.4 | 0.00 | 0.00 | 0.00 | 71 | 1014.9 |
| 20260508150049 | 16 | 215 | 0.0 | 6.4 | 0.00 | 0.00 | 0.00 | 70 | 1014.9 |
| 20260508144520 | 17 | 189 | 1.6 | 4.8 | 0.00 | 0.00 | 0.00 | 71 | 1015.0 |
| 20260508143047 | 17 | 115 | 3.2 | 9.7 | 0.00 | 0.00 | 0.00 | 70 | 1015.0 |
| 20260508141526 | 17 | 187 | 3.2 | 12.9 | 0.00 | 0.00 | 0.00 | 69 | 1015.1 |
| 20260508140024 | 17 | 194 | 3.2 | 14.5 | 0.00 | 0.00 | 0.00 | 69 | 1015.1 |
| 20260508134516 | 17 | 196 | 8.0 | 19.3 | 0.00 | 0.00 | 0.00 | 69 | 1015.2 |
| 20260508133029 | 18 | 213 | 6.4 | 19.3 | 0.00 | 0.00 | 0.00 | 64 | 1015.3 |
| 20260508131522 | 18 | 184 | 3.2 | 12.9 | 0.00 | 0.00 | 0.00 | 71 | 1015.4 |
| 20260508130018 | 17 | 132 | 4.8 | 19.3 | 0.00 | 0.00 | 0.00 | 69 | 1015.5 |
| 20260508124529 | 17 | 360 | 8.0 | 14.5 | 0.00 | 0.00 | 0.00 | 64 | 1015.5 |
| 20260508123023 | 17 | 140 | 4.8 | 14.5 | 0.00 | 0.00 | 0.00 | 63 | 1015.5 |
| 20260508121514 | 17 | 117 | 3.2 | 12.9 | 0.00 | 0.00 | 0.00 | 70 | 1015.6 |
| 20260508120026 | 17 | 225 | 4.8 | 11.3 | 0.00 | 0.00 | 0.00 | 67 | 1015.6 |
| 20260508114549 | 17 | 153 | 4.8 | 14.5 | 0.00 | 0.03 | 0.00 | 64 | 1015.7 |
| 20260508113031 | 17 | 360 | 11.3 | 16.1 | 0.00 | 0.03 | 0.00 | 68 | 1015.7 |
| 20260508111524 | 17 | 168 | 0.0 | 6.4 | 0.00 | 0.03 | 0.00 | 61 | 1015.7 |
| 20260508110014 | 17 | 165 | 8.0 | 12.9 | 0.00 | 0.03 | 0.00 | 68 | 1015.9 |
| 20260508104533 | 17 | 131 | 1.6 | 14.5 | 0.00 | 0.03 | 0.00 | 67 | 1016.1 |
| 20260508103024 | 16 | 179 | 3.2 | 12.9 | 0.00 | 0.03 | 0.00 | 72 | 1016.1 |
| 20260508101518 | 15 | 140 | 4.8 | 12.9 | 0.00 | 0.03 | 0.00 | 74 | 1016.0 |
| 20260508100034 | 16 | 103 | 4.8 | 12.9 | 0.00 | 0.03 | 0.00 | 72 | 1016.0 |
| 20260508094522 | 16 | 214 | 4.8 | 12.9 | 0.00 | 0.03 | 0.00 | 69 | 1016.1 |
| 20260508093019 | 15 | 207 | 6.4 | 11.3 | 0.00 | 0.03 | 0.00 | 72 | 1016.1 |
| 20260508091533 | 15 | 360 | 6.4 | 9.7 | 0.00 | 0.03 | 0.00 | 76 | 1016.2 |
| 20260508090029 | 16 | 182 | 3.2 | 14.5 | 0.00 | 0.03 | 0.00 | 71 | 1016.1 |
| 20260508084517 | 16 | 208 | 8.0 | 19.3 | 0.00 | 0.03 | 0.00 | 69 | 1016.0 |
| 20260508083033 | 15 | 182 | 9.7 | 19.3 | 0.00 | 0.03 | 0.00 | 70 | 1015.9 |
| 20260508081527 | 15 | 208 | 6.4 | 14.5 | 0.00 | 0.03 | 0.00 | 69 | 1015.8 |
| 20260508080040 | 15 | 213 | 4.8 | 12.9 | 0.00 | 0.03 | 0.00 | 72 | 1015.7 |
| 20260508074517 | 15 | 360 | 3.2 | 9.7 | 0.00 | 0.05 | 0.00 | 69 | 1015.7 |
| 20260508073030 | 15 | 130 | 1.6 | 4.8 | 0.00 | 0.05 | 0.00 | 69 | 1015.6 |
| 20260508071523 | 15 | 229 | 0.0 | 6.4 | 0.00 | 0.05 | 0.00 | 67 | 1015.5 |
| 20260508070022 | 15 | 13 | 0.0 | 9.7 | 0.00 | 0.05 | 0.00 | 71 | 1015.4 |
| 20260508064540 | 14 | 44 | 6.4 | 12.9 | 0.00 | 0.10 | 0.00 | 71 | 1015.2 |
| 20260508063019 | 13 | 80 | 0.0 | 3.2 | 0.00 | 0.10 | 0.00 | 75 | 1015.2 |
| 20260508061537 | 12 | 75 | 3.2 | 14.5 | 0.00 | 0.10 | 0.00 | 75 | 1015.1 |
| 20260508060026 | 12 | 34 | 9.7 | 20.9 | 0.00 | 0.10 | 0.00 | 77 | 1015.0 |
| 20260508054539 | 11 | 5 | 14.5 | 20.9 | 0.00 | 0.18 | 0.00 | 77 | 1015.0 |
| 20260508053019 | 10 | 360 | 11.3 | 17.7 | 0.00 | 0.18 | 0.00 | 80 | 1015.0 |
| 20260508051537 | 10 | 21 | 9.7 | 17.7 | 0.00 | 0.18 | 0.00 | 81 | 1014.9 |
| 20260508050024 | 10 | 355 | 14.5 | 17.7 | 0.00 | 0.18 | 0.00 | 82 | 1014.8 |
| 20260508044519 | 10 | 16 | 1.6 | 8.0 | 0.00 | 0.25 | 0.00 | 83 | 1014.8 |
| 20260508043032 | 9 | 5 | 0.0 | 8.0 | 0.00 | 0.25 | 0.00 | 84 | 1014.7 |
| 20260508041524 | 9 | 5 | 3.2 | 6.4 | 0.00 | 0.25 | 0.00 | 84 | 1014.7 |
| 20260508040035 | 9 | 5 | 3.2 | 6.4 | 0.00 | 0.25 | 0.00 | 84 | 1014.7 |